首页
METAR-TAF:

METAR-TAF

机场 :

Trenton-Mercer Airport

特伦顿, 新泽西州, 美国

纬度: 40-16-35N, 经度: 074-48-59W, 海拔: 64米

当前天气观测

该预报发布于57分钟前的06:53 UTC
风速3节,风向
温度 7°C
湿度 100%
气压 1014 hPa
能見度: 16.1公里
阴天层高于600英尺

METAR: KTTN 310653Z AUTO 09003KT 10SM OVC006 07/07 A2995 RMK AO2 CIG 004V011 SLP138 T00720067

时间: 03:50 (07:50 UTC)

预报

该预报发布于2小时和30分钟前的05:20 UTC
预报有效从31日的 06点(UTC)到 01日的 06点(UTC)
风速3节,风向多变
能見度: 4.8公里
阴天层高于200英尺
轻雾
从 31日的 0700点(UTC)
风速5节,风向北转东北
能見度: 3.2公里
阴天层高于200英尺
轻雾
从 31日的 1300点(UTC)
风速6节,风向
能見度: 9.7公里
阴天层高于800英尺
轻雾, 附近有阵雨
从 31日的 1700点(UTC)
风速6节,风向
能見度: 10公里
阴天层高于1500英尺
从 31日的 1900点(UTC)
风速6节,风向
能見度: 10公里
阴天层高于2500英尺
从 31日的 2300点(UTC)
风速8节,风向东转东南
能見度: 10公里
散云层高于2500英尺
阴天层高于5000英尺
从 01日的 0200点(UTC)
风速5节,风向
能見度: 10公里
阴天层高于2500英尺

TAF: KTTN 310520Z 3106/0106 VRB03KT 3SM BR OVC002 FM310700 02005KT 2SM BR OVC002 FM311300 08006KT 6SM BR VCSH OVC008 FM311700 08006KT P6SM OVC015 FM311900 10006KT P6SM OVC025 FM312300 11008KT P6SM SCT025 OVC050 FM010200 09005KT P6SM OVC025

超过4000个机场的气象观测和天气预报(METAR&TAF报告)。

可查询的气象台以黄色和红色小点在地图上表示。

将鼠标移到小点上方,可查看气象台名称。

然后点击查看天气观测和预报。

如需切换地图:点击带黑十字的绿色按钮放大地图;点击带横线的绿色按钮缩小地图;或者点击绿色箭头查看邻近地区的地图。


METAR-TAF: